sensor_id;sensor_type;location;lat;lon;timestamp;temperature;humidity
29207;DHT22;16247;50.840;4.382;2023-10-09T00:00:59;19.70;99.90
29207;DHT22;16247;50.840;4.382;2023-10-09T00:03:32;19.70;99.90
29207;DHT22;16247;50.840;4.382;2023-10-09T00:05:58;19.60;99.90
29207;DHT22;16247;50.840;4.382;2023-10-09T00:08:24;19.40;99.90
29207;DHT22;16247;50.840;4.382;2023-10-09T00:10:57;19.40;99.90
29207;DHT22;16247;50.840;4.382;2023-10-09T00:13:25;19.30;99.90
29207;DHT22;16247;50.840;4.382;2023-10-09T00:15:58;19.20;99.90
29207;DHT22;16247;50.840;4.382;2023-10-09T00:18:34;19.10;99.90
29207;DHT22;16247;50.840;4.382;2023-10-09T00:21:00;19.00;99.90
29207;DHT22;16247;50.840;4.382;2023-10-09T00:23:27;19.00;99.90
29207;DHT22;16247;50.840;4.382;2023-10-09T00:25:53;19.00;99.90
29207;DHT22;16247;50.840;4.382;2023-10-09T00:28:36;18.90;99.90
29207;DHT22;16247;50.840;4.382;2023-10-09T00:31:04;18.90;99.90
29207;DHT22;16247;50.840;4.382;2023-10-09T00:33:36;18.90;99.90
29207;DHT22;16247;50.840;4.382;2023-10-09T00:36:03;18.90;99.90
29207;DHT22;16247;50.840;4.382;2023-10-09T00:38:36;18.90;99.90
29207;DHT22;16247;50.840;4.382;2023-10-09T00:41:05;18.90;99.90
29207;DHT22;16247;50.840;4.382;2023-10-09T00:43:34;19.00;99.90
29207;DHT22;16247;50.840;4.382;2023-10-09T00:46:04;18.90;99.90
29207;DHT22;16247;50.840;4.382;2023-10-09T00:48:38;19.00;99.90
29207;DHT22;16247;50.840;4.382;2023-10-09T00:51:08;18.90;99.90
29207;DHT22;16247;50.840;4.382;2023-10-09T00:53:45;18.80;99.90
29207;DHT22;16247;50.840;4.382;2023-10-09T00:56:17;18.70;99.90
29207;DHT22;16247;50.840;4.382;2023-10-09T00:58:56;18.70;99.90
29207;DHT22;16247;50.840;4.382;2023-10-09T01:01:36;18.80;99.90
29207;DHT22;16247;50.840;4.382;2023-10-09T01:04:15;18.70;99.90
29207;DHT22;16247;50.840;4.382;2023-10-09T01:06:44;18.60;99.90
29207;DHT22;16247;50.840;4.382;2023-10-09T01:09:17;18.50;99.90
29207;DHT22;16247;50.840;4.382;2023-10-09T01:11:42;18.50;99.90
29207;DHT22;16247;50.840;4.382;2023-10-09T01:14:31;18.50;99.90
29207;DHT22;16247;50.840;4.382;2023-10-09T01:17:06;18.40;99.90
29207;DHT22;16247;50.840;4.382;2023-10-09T01:19:36;18.40;99.90
29207;DHT22;16247;50.840;4.382;2023-10-09T01:22:02;18.50;99.90
29207;DHT22;16247;50.840;4.382;2023-10-09T01:24:39;18.40;99.90
29207;DHT22;16247;50.840;4.382;2023-10-09T01:27:08;18.40;99.90
29207;DHT22;16247;50.840;4.382;2023-10-09T01:29:41;18.30;99.90
29207;DHT22;16247;50.840;4.382;2023-10-09T01:32:11;18.30;99.90
29207;DHT22;16247;50.840;4.382;2023-10-09T01:34:45;18.30;99.90
29207;DHT22;16247;50.840;4.382;2023-10-09T01:37:18;18.20;99.90
29207;DHT22;16247;50.840;4.382;2023-10-09T01:39:53;18.20;99.90
29207;DHT22;16247;50.840;4.382;2023-10-09T01:42:47;18.10;99.90
29207;DHT22;16247;50.840;4.382;2023-10-09T01:45:13;18.20;99.90
29207;DHT22;16247;50.840;4.382;2023-10-09T01:47:55;18.20;99.90
29207;DHT22;16247;50.840;4.382;2023-10-09T01:50:22;18.20;99.90
29207;DHT22;16247;50.840;4.382;2023-10-09T01:52:50;18.20;99.90
29207;DHT22;16247;50.840;4.382;2023-10-09T01:55:19;18.30;99.90
29207;DHT22;16247;50.840;4.382;2023-10-09T01:58:07;18.30;99.90
29207;DHT22;16247;50.840;4.382;2023-10-09T02:00:50;18.30;99.90
29207;DHT22;16247;50.840;4.382;2023-10-09T02:03:28;18.20;99.90
29207;DHT22;16247;50.840;4.382;2023-10-09T02:05:55;18.20;99.90
29207;DHT22;16247;50.840;4.382;2023-10-09T02:08:28;18.20;99.90
29207;DHT22;16247;50.840;4.382;2023-10-09T02:10:55;18.20;99.90
29207;DHT22;16247;50.840;4.382;2023-10-09T02:13:23;18.20;99.90
29207;DHT22;16247;50.840;4.382;2023-10-09T02:15:58;18.30;99.90
29207;DHT22;16247;50.840;4.382;2023-10-09T02:18:40;18.30;99.90
29207;DHT22;16247;50.840;4.382;2023-10-09T02:21:18;18.20;99.90
29207;DHT22;16247;50.840;4.382;2023-10-09T02:23:54;18.20;99.90
29207;DHT22;16247;50.840;4.382;2023-10-09T02:26:23;18.30;99.90
29207;DHT22;16247;50.840;4.382;2023-10-09T02:28:53;18.30;99.90
29207;DHT22;16247;50.840;4.382;2023-10-09T02:31:26;18.30;99.90
29207;DHT22;16247;50.840;4.382;2023-10-09T02:34:01;18.40;99.90
29207;DHT22;16247;50.840;4.382;2023-10-09T02:36:30;18.30;99.90
29207;DHT22;16247;50.840;4.382;2023-10-09T02:38:56;18.40;99.90
29207;DHT22;16247;50.840;4.382;2023-10-09T02:41:25;18.40;99.90
29207;DHT22;16247;50.840;4.382;2023-10-09T02:43:54;18.30;99.90
29207;DHT22;16247;50.840;4.382;2023-10-09T02:46:36;18.20;99.90
29207;DHT22;16247;50.840;4.382;2023-10-09T02:49:02;18.10;99.90
29207;DHT22;16247;50.840;4.382;2023-10-09T02:51:35;18.10;99.90
29207;DHT22;16247;50.840;4.382;2023-10-09T02:54:07;18.20;99.90
29207;DHT22;16247;50.840;4.382;2023-10-09T02:56:44;18.20;99.90
29207;DHT22;16247;50.840;4.382;2023-10-09T02:59:13;18.00;99.90
29207;DHT22;16247;50.840;4.382;2023-10-09T03:01:40;18.10;99.90
29207;DHT22;16247;50.840;4.382;2023-10-09T03:04:07;18.10;99.90
29207;DHT22;16247;50.840;4.382;2023-10-09T03:06:36;18.10;99.90
29207;DHT22;16247;50.840;4.382;2023-10-09T03:09:16;18.10;99.90
29207;DHT22;16247;50.840;4.382;2023-10-09T03:11:49;18.10;99.90
29207;DHT22;16247;50.840;4.382;2023-10-09T03:14:22;18.10;99.90
29207;DHT22;16247;50.840;4.382;2023-10-09T03:16:52;18.20;99.90
29207;DHT22;16247;50.840;4.382;2023-10-09T03:19:18;18.10;99.90
29207;DHT22;16247;50.840;4.382;2023-10-09T03:21:44;17.90;99.90
29207;DHT22;16247;50.840;4.382;2023-10-09T03:24:14;17.90;99.90
29207;DHT22;16247;50.840;4.382;2023-10-09T03:26:41;17.80;99.90
29207;DHT22;16247;50.840;4.382;2023-10-09T03:29:10;17.70;99.90
29207;DHT22;16247;50.840;4.382;2023-10-09T03:31:39;17.70;99.90
29207;DHT22;16247;50.840;4.382;2023-10-09T03:34:05;17.70;99.90
29207;DHT22;16247;50.840;4.382;2023-10-09T03:36:34;17.80;99.90
29207;DHT22;16247;50.840;4.382;2023-10-09T03:39:04;17.80;99.90
29207;DHT22;16247;50.840;4.382;2023-10-09T03:41:44;17.70;99.90
29207;DHT22;16247;50.840;4.382;2023-10-09T03:44:13;17.70;99.90
29207;DHT22;16247;50.840;4.382;2023-10-09T03:46:39;17.70;99.90
29207;DHT22;16247;50.840;4.382;2023-10-09T03:49:09;17.70;99.90
29207;DHT22;16247;50.840;4.382;2023-10-09T03:51:36;17.60;99.90
29207;DHT22;16247;50.840;4.382;2023-10-09T03:54:03;17.70;99.90
29207;DHT22;16247;50.840;4.382;2023-10-09T03:56:33;17.60;99.90
29207;DHT22;16247;50.840;4.382;2023-10-09T03:59:00;17.50;99.90
29207;DHT22;16247;50.840;4.382;2023-10-09T04:01:27;17.60;99.90
29207;DHT22;16247;50.840;4.382;2023-10-09T04:04:04;17.70;99.90
29207;DHT22;16247;50.840;4.382;2023-10-09T04:06:33;17.60;99.90
29207;DHT22;16247;50.840;4.382;2023-10-09T04:09:00;17.70;99.90
29207;DHT22;16247;50.840;4.382;2023-10-09T04:11:39;17.70;99.90
29207;DHT22;16247;50.840;4.382;2023-10-09T04:14:08;17.60;99.90
29207;DHT22;16247;50.840;4.382;2023-10-09T04:16:47;17.40;99.90
29207;DHT22;16247;50.840;4.382;2023-10-09T04:19:29;17.50;99.90
29207;DHT22;16247;50.840;4.382;2023-10-09T04:21:55;17.40;99.90
29207;DHT22;16247;50.840;4.382;2023-10-09T04:24:25;17.50;99.90
29207;DHT22;16247;50.840;4.382;2023-10-09T04:26:51;17.40;99.90
29207;DHT22;16247;50.840;4.382;2023-10-09T04:29:23;17.40;99.90
29207;DHT22;16247;50.840;4.382;2023-10-09T04:32:03;17.30;99.90
29207;DHT22;16247;50.840;4.382;2023-10-09T04:34:33;17.40;99.90
29207;DHT22;16247;50.840;4.382;2023-10-09T04:37:14;17.40;99.90
29207;DHT22;16247;50.840;4.382;2023-10-09T04:39:40;17.40;99.90
29207;DHT22;16247;50.840;4.382;2023-10-09T04:42:15;17.30;99.90
29207;DHT22;16247;50.840;4.382;2023-10-09T04:44:49;17.40;99.90
29207;DHT22;16247;50.840;4.382;2023-10-09T04:47:34;17.40;99.90
29207;DHT22;16247;50.840;4.382;2023-10-09T04:50:15;17.40;99.90
29207;DHT22;16247;50.840;4.382;2023-10-09T04:52:45;17.40;99.90
29207;DHT22;16247;50.840;4.382;2023-10-09T04:55:20;17.40;99.90
29207;DHT22;16247;50.840;4.382;2023-10-09T04:57:55;17.40;99.90
29207;DHT22;16247;50.840;4.382;2023-10-09T05:00:49;17.40;99.90
29207;DHT22;16247;50.840;4.382;2023-10-09T05:03:30;17.40;99.90
29207;DHT22;16247;50.840;4.382;2023-10-09T05:06:05;17.40;99.90
29207;DHT22;16247;50.840;4.382;2023-10-09T05:08:47;17.40;99.90
29207;DHT22;16247;50.840;4.382;2023-10-09T05:11:15;17.30;99.90
29207;DHT22;16247;50.840;4.382;2023-10-09T05:14:01;17.40;99.90
29207;DHT22;16247;50.840;4.382;2023-10-09T05:16:41;17.30;99.90
29207;DHT22;16247;50.840;4.382;2023-10-09T05:19:23;17.30;99.90
29207;DHT22;16247;50.840;4.382;2023-10-09T05:22:00;17.40;99.90
29207;DHT22;16247;50.840;4.382;2023-10-09T05:24:30;17.20;99.90
29207;DHT22;16247;50.840;4.382;2023-10-09T05:27:09;17.30;99.90
29207;DHT22;16247;50.840;4.382;2023-10-09T05:29:43;17.20;99.90
29207;DHT22;16247;50.840;4.382;2023-10-09T05:32:31;17.30;99.90
29207;DHT22;16247;50.840;4.382;2023-10-09T05:35:01;17.30;99.90
29207;DHT22;16247;50.840;4.382;2023-10-09T05:37:32;17.30;99.90
29207;DHT22;16247;50.840;4.382;2023-10-09T05:40:02;17.20;99.90
29207;DHT22;16247;50.840;4.382;2023-10-09T05:42:34;17.30;99.90
29207;DHT22;16247;50.840;4.382;2023-10-09T05:45:20;17.40;99.90
29207;DHT22;16247;50.840;4.382;2023-10-09T05:48:07;17.40;99.90
29207;DHT22;16247;50.840;4.382;2023-10-09T05:50:39;17.30;99.90
29207;DHT22;16247;50.840;4.382;2023-10-09T05:53:24;17.10;99.90
29207;DHT22;16247;50.840;4.382;2023-10-09T05:56:23;17.10;99.90
29207;DHT22;16247;50.840;4.382;2023-10-09T05:58:57;17.30;99.90
29207;DHT22;16247;50.840;4.382;2023-10-09T06:01:42;17.30;99.90
29207;DHT22;16247;50.840;4.382;2023-10-09T06:04:26;17.30;99.90
29207;DHT22;16247;50.840;4.382;2023-10-09T06:07:10;17.40;99.90
29207;DHT22;16247;50.840;4.382;2023-10-09T06:09:39;17.40;99.90
29207;DHT22;16247;50.840;4.382;2023-10-09T06:12:21;17.30;99.90
29207;DHT22;16247;50.840;4.382;2023-10-09T06:14:50;17.30;99.90
29207;DHT22;16247;50.840;4.382;2023-10-09T06:17:24;17.50;99.90
29207;DHT22;16247;50.840;4.382;2023-10-09T06:19:50;17.40;99.90
29207;DHT22;16247;50.840;4.382;2023-10-09T06:22:24;17.30;99.90
29207;DHT22;16247;50.840;4.382;2023-10-09T06:25:01;17.40;99.90
29207;DHT22;16247;50.840;4.382;2023-10-09T06:27:34;17.30;99.90
29207;DHT22;16247;50.840;4.382;2023-10-09T06:30:00;17.30;99.90
29207;DHT22;16247;50.840;4.382;2023-10-09T06:32:42;17.40;99.90
29207;DHT22;16247;50.840;4.382;2023-10-09T06:35:20;17.50;99.90
29207;DHT22;16247;50.840;4.382;2023-10-09T06:37:57;18.00;99.90
29207;DHT22;16247;50.840;4.382;2023-10-09T06:40:29;18.00;99.90
29207;DHT22;16247;50.840;4.382;2023-10-09T06:43:05;18.20;99.90
29207;DHT22;16247;50.840;4.382;2023-10-09T06:45:36;18.50;99.90
29207;DHT22;16247;50.840;4.382;2023-10-09T06:48:09;18.30;99.90
29207;DHT22;16247;50.840;4.382;2023-10-09T06:50:56;18.20;99.90
29207;DHT22;16247;50.840;4.382;2023-10-09T06:53:24;18.10;99.90
29207;DHT22;16247;50.840;4.382;2023-10-09T06:56:15;18.00;99.90
29207;DHT22;16247;50.840;4.382;2023-10-09T06:59:02;18.00;99.90
29207;DHT22;16247;50.840;4.382;2023-10-09T07:01:48;17.80;99.90
29207;DHT22;16247;50.840;4.382;2023-10-09T07:04:34;17.60;99.90
29207;DHT22;16247;50.840;4.382;2023-10-09T07:07:00;17.60;99.90
29207;DHT22;16247;50.840;4.382;2023-10-09T07:09:33;17.50;99.90
29207;DHT22;16247;50.840;4.382;2023-10-09T07:12:09;17.50;99.90
29207;DHT22;16247;50.840;4.382;2023-10-09T07:15:01;17.70;99.90
29207;DHT22;16247;50.840;4.382;2023-10-09T07:17:47;17.50;99.90
29207;DHT22;16247;50.840;4.382;2023-10-09T07:20:18;17.50;99.90
29207;DHT22;16247;50.840;4.382;2023-10-09T07:23:03;17.50;99.90
29207;DHT22;16247;50.840;4.382;2023-10-09T07:25:42;17.50;99.90
29207;DHT22;16247;50.840;4.382;2023-10-09T07:28:20;17.50;99.90
29207;DHT22;16247;50.840;4.382;2023-10-09T07:31:03;17.60;99.90
29207;DHT22;16247;50.840;4.382;2023-10-09T07:33:29;17.50;99.90
29207;DHT22;16247;50.840;4.382;2023-10-09T07:36:13;17.30;99.90
29207;DHT22;16247;50.840;4.382;2023-10-09T07:38:39;17.30;99.90
29207;DHT22;16247;50.840;4.382;2023-10-09T07:41:10;17.40;99.90
29207;DHT22;16247;50.840;4.382;2023-10-09T07:43:42;17.30;99.90
29207;DHT22;16247;50.840;4.382;2023-10-09T07:46:23;17.30;99.90
29207;DHT22;16247;50.840;4.382;2023-10-09T07:49:21;17.30;99.90
29207;DHT22;16247;50.840;4.382;2023-10-09T07:51:54;17.10;99.90
29207;DHT22;16247;50.840;4.382;2023-10-09T07:54:21;17.20;99.90
29207;DHT22;16247;50.840;4.382;2023-10-09T07:57:02;17.30;99.90
29207;DHT22;16247;50.840;4.382;2023-10-09T07:59:44;17.50;99.90
29207;DHT22;16247;50.840;4.382;2023-10-09T08:02:49;17.50;99.90
29207;DHT22;16247;50.840;4.382;2023-10-09T08:05:15;17.60;99.90
29207;DHT22;16247;50.840;4.382;2023-10-09T08:07:48;17.50;99.90
29207;DHT22;16247;50.840;4.382;2023-10-09T08:10:22;17.50;99.90
29207;DHT22;16247;50.840;4.382;2023-10-09T08:12:48;17.50;99.90
29207;DHT22;16247;50.840;4.382;2023-10-09T08:15:24;17.50;99.90
29207;DHT22;16247;50.840;4.382;2023-10-09T08:18:22;17.50;99.90
29207;DHT22;16247;50.840;4.382;2023-10-09T08:20:54;17.50;99.90
29207;DHT22;16247;50.840;4.382;2023-10-09T08:23:25;17.50;99.90
29207;DHT22;16247;50.840;4.382;2023-10-09T08:26:15;17.50;99.90
29207;DHT22;16247;50.840;4.382;2023-10-09T08:28:55;17.40;99.90
29207;DHT22;16247;50.840;4.382;2023-10-09T08:31:42;17.40;99.90
29207;DHT22;16247;50.840;4.382;2023-10-09T08:34:14;17.40;99.90
29207;DHT22;16247;50.840;4.382;2023-10-09T08:36:54;17.40;99.90
29207;DHT22;16247;50.840;4.382;2023-10-09T08:39:21;17.50;99.90
29207;DHT22;16247;50.840;4.382;2023-10-09T08:41:56;17.60;99.90
29207;DHT22;16247;50.840;4.382;2023-10-09T08:44:27;17.60;99.90
29207;DHT22;16247;50.840;4.382;2023-10-09T08:46:57;17.80;99.90
29207;DHT22;16247;50.840;4.382;2023-10-09T08:49:30;17.60;99.90
29207;DHT22;16247;50.840;4.382;2023-10-09T08:51:59;17.70;99.90
29207;DHT22;16247;50.840;4.382;2023-10-09T08:54:43;17.80;99.90
29207;DHT22;16247;50.840;4.382;2023-10-09T08:57:09;17.90;99.90
29207;DHT22;16247;50.840;4.382;2023-10-09T08:59:41;17.80;99.90
29207;DHT22;16247;50.840;4.382;2023-10-09T09:02:09;17.90;99.90
29207;DHT22;16247;50.840;4.382;2023-10-09T09:04:52;18.00;99.90
29207;DHT22;16247;50.840;4.382;2023-10-09T09:07:30;18.10;99.90
29207;DHT22;16247;50.840;4.382;2023-10-09T09:10:05;18.10;99.90
29207;DHT22;16247;50.840;4.382;2023-10-09T09:12:54;18.20;99.90
29207;DHT22;16247;50.840;4.382;2023-10-09T09:15:28;18.30;99.90
29207;DHT22;16247;50.840;4.382;2023-10-09T09:18:08;18.30;99.90
29207;DHT22;16247;50.840;4.382;2023-10-09T09:20:44;18.40;99.90
29207;DHT22;16247;50.840;4.382;2023-10-09T09:23:20;18.40;99.90
29207;DHT22;16247;50.840;4.382;2023-10-09T09:25:58;18.50;99.90
29207;DHT22;16247;50.840;4.382;2023-10-09T09:28:25;18.60;99.90
29207;DHT22;16247;50.840;4.382;2023-10-09T09:31:09;18.60;99.90
29207;DHT22;16247;50.840;4.382;2023-10-09T09:33:40;18.60;99.90
29207;DHT22;16247;50.840;4.382;2023-10-09T09:36:12;18.80;99.90
29207;DHT22;16247;50.840;4.382;2023-10-09T09:38:38;18.70;99.90
29207;DHT22;16247;50.840;4.382;2023-10-09T09:41:09;18.80;99.90
29207;DHT22;16247;50.840;4.382;2023-10-09T09:43:36;18.90;99.90
29207;DHT22;16247;50.840;4.382;2023-10-09T09:46:07;18.80;99.90
29207;DHT22;16247;50.840;4.382;2023-10-09T09:48:38;18.80;99.90
29207;DHT22;16247;50.840;4.382;2023-10-09T09:51:12;18.80;99.90
29207;DHT22;16247;50.840;4.382;2023-10-09T09:53:42;18.90;99.90
29207;DHT22;16247;50.840;4.382;2023-10-09T09:56:14;19.10;99.90
29207;DHT22;16247;50.840;4.382;2023-10-09T09:58:45;19.20;99.90
29207;DHT22;16247;50.840;4.382;2023-10-09T10:01:15;19.30;99.90
29207;DHT22;16247;50.840;4.382;2023-10-09T10:03:54;19.30;99.90
29207;DHT22;16247;50.840;4.382;2023-10-09T10:06:30;19.30;99.90
29207;DHT22;16247;50.840;4.382;2023-10-09T10:08:59;19.40;99.90
29207;DHT22;16247;50.840;4.382;2023-10-09T10:11:58;19.30;99.90
29207;DHT22;16247;50.840;4.382;2023-10-09T10:14:51;19.50;99.90
29207;DHT22;16247;50.840;4.382;2023-10-09T10:17:22;19.70;99.90
29207;DHT22;16247;50.840;4.382;2023-10-09T10:22:29;19.50;99.90
29207;DHT22;16247;50.840;4.382;2023-10-09T10:24:56;19.40;99.90
29207;DHT22;16247;50.840;4.382;2023-10-09T10:27:29;19.30;99.90
29207;DHT22;16247;50.840;4.382;2023-10-09T10:30:29;19.20;99.90
29207;DHT22;16247;50.840;4.382;2023-10-09T10:33:03;19.30;99.90
29207;DHT22;16247;50.840;4.382;2023-10-09T10:35:39;19.30;99.90
29207;DHT22;16247;50.840;4.382;2023-10-09T10:38:31;19.20;99.90
29207;DHT22;16247;50.840;4.382;2023-10-09T10:41:19;19.40;99.90
29207;DHT22;16247;50.840;4.382;2023-10-09T10:43:49;19.60;99.90
29207;DHT22;16247;50.840;4.382;2023-10-09T10:46:21;19.60;99.90
29207;DHT22;16247;50.840;4.382;2023-10-09T10:49:11;19.60;99.90
29207;DHT22;16247;50.840;4.382;2023-10-09T10:51:42;19.70;99.90
29207;DHT22;16247;50.840;4.382;2023-10-09T10:54:25;19.80;99.90
29207;DHT22;16247;50.840;4.382;2023-10-09T10:57:21;19.70;99.90
29207;DHT22;16247;50.840;4.382;2023-10-09T11:00:13;19.80;99.90
29207;DHT22;16247;50.840;4.382;2023-10-09T11:02:59;19.90;99.90
29207;DHT22;16247;50.840;4.382;2023-10-09T11:05:43;20.10;99.90
29207;DHT22;16247;50.840;4.382;2023-10-09T11:08:26;20.10;99.90
29207;DHT22;16247;50.840;4.382;2023-10-09T11:11:13;20.20;99.90
29207;DHT22;16247;50.840;4.382;2023-10-09T11:13:44;20.10;99.90
29207;DHT22;16247;50.840;4.382;2023-10-09T11:16:28;20.20;99.90
29207;DHT22;16247;50.840;4.382;2023-10-09T11:22:33;20.30;99.90
29207;DHT22;16247;50.840;4.382;2023-10-09T11:25:07;20.40;99.90
29207;DHT22;16247;50.840;4.382;2023-10-09T11:28:24;20.40;99.90
29207;DHT22;16247;50.840;4.382;2023-10-09T11:31:16;20.50;99.90
29207;DHT22;16247;50.840;4.382;2023-10-09T12:04:03;21.50;99.90
29207;DHT22;16247;50.840;4.382;2023-10-09T12:06:50;21.50;99.90
29207;DHT22;16247;50.840;4.382;2023-10-09T12:09:33;21.90;99.90
29207;DHT22;16247;50.840;4.382;2023-10-09T12:12:08;21.80;99.90
29207;DHT22;16247;50.840;4.382;2023-10-09T12:14:41;21.80;99.90
29207;DHT22;16247;50.840;4.382;2023-10-09T12:17:08;21.90;99.90
29207;DHT22;16247;50.840;4.382;2023-10-09T12:19:41;21.90;99.90
29207;DHT22;16247;50.840;4.382;2023-10-09T12:22:10;21.90;99.90
29207;DHT22;16247;50.840;4.382;2023-10-09T12:24:41;22.00;99.90
29207;DHT22;16247;50.840;4.382;2023-10-09T12:27:10;21.80;99.90
29207;DHT22;16247;50.840;4.382;2023-10-09T12:29:37;21.90;99.90
29207;DHT22;16247;50.840;4.382;2023-10-09T12:32:02;21.90;99.90
29207;DHT22;16247;50.840;4.382;2023-10-09T12:34:37;21.70;99.90
29207;DHT22;16247;50.840;4.382;2023-10-09T12:37:08;21.70;99.90
29207;DHT22;16247;50.840;4.382;2023-10-09T12:39:35;21.90;99.90
29207;DHT22;16247;50.840;4.382;2023-10-09T12:42:06;22.00;99.90
29207;DHT22;16247;50.840;4.382;2023-10-09T12:44:40;22.00;99.90
29207;DHT22;16247;50.840;4.382;2023-10-09T12:47:09;22.10;99.90
29207;DHT22;16247;50.840;4.382;2023-10-09T12:49:40;21.70;99.90
29207;DHT22;16247;50.840;4.382;2023-10-09T12:52:09;21.70;99.90
29207;DHT22;16247;50.840;4.382;2023-10-09T12:54:45;21.80;99.90
29207;DHT22;16247;50.840;4.382;2023-10-09T12:57:12;21.90;99.90
29207;DHT22;16247;50.840;4.382;2023-10-09T12:59:44;21.90;99.90
29207;DHT22;16247;50.840;4.382;2023-10-09T13:02:17;22.20;99.90
29207;DHT22;16247;50.840;4.382;2023-10-09T13:05:03;22.30;99.90
29207;DHT22;16247;50.840;4.382;2023-10-09T13:07:46;22.10;99.90
29207;DHT22;16247;50.840;4.382;2023-10-09T13:10:15;22.40;99.90
29207;DHT22;16247;50.840;4.382;2023-10-09T13:12:48;22.30;99.90
29207;DHT22;16247;50.840;4.382;2023-10-09T13:15:22;22.30;99.90
29207;DHT22;16247;50.840;4.382;2023-10-09T13:18:21;22.30;99.90
29207;DHT22;16247;50.840;4.382;2023-10-09T13:20:50;22.20;99.90
29207;DHT22;16247;50.840;4.382;2023-10-09T13:23:18;22.50;99.90
29207;DHT22;16247;50.840;4.382;2023-10-09T13:25:45;22.40;99.90
29207;DHT22;16247;50.840;4.382;2023-10-09T13:28:12;22.40;99.90
29207;DHT22;16247;50.840;4.382;2023-10-09T13:30:48;22.60;99.90
29207;DHT22;16247;50.840;4.382;2023-10-09T13:33:16;22.60;99.90
29207;DHT22;16247;50.840;4.382;2023-10-09T13:35:48;22.40;99.90
29207;DHT22;16247;50.840;4.382;2023-10-09T13:38:22;22.20;99.90
29207;DHT22;16247;50.840;4.382;2023-10-09T13:40:59;22.50;99.90
29207;DHT22;16247;50.840;4.382;2023-10-09T13:43:34;22.40;99.90
29207;DHT22;16247;50.840;4.382;2023-10-09T13:46:00;22.70;99.90
29207;DHT22;16247;50.840;4.382;2023-10-09T13:48:31;22.70;99.90
29207;DHT22;16247;50.840;4.382;2023-10-09T13:51:13;22.60;99.90
29207;DHT22;16247;50.840;4.382;2023-10-09T14:04:28;22.90;99.90
29207;DHT22;16247;50.840;4.382;2023-10-09T14:06:57;22.70;99.90
29207;DHT22;16247;50.840;4.382;2023-10-09T14:09:57;22.70;99.90
29207;DHT22;16247;50.840;4.382;2023-10-09T14:13:19;22.70;99.90
29207;DHT22;16247;50.840;4.382;2023-10-09T14:16:25;22.70;99.90
29207;DHT22;16247;50.840;4.382;2023-10-09T14:19:20;22.40;99.90
29207;DHT22;16247;50.840;4.382;2023-10-09T14:22:46;22.30;99.90
29207;DHT22;16247;50.840;4.382;2023-10-09T14:25:43;22.50;99.90
29207;DHT22;16247;50.840;4.382;2023-10-09T14:28:11;22.50;99.90
29207;DHT22;16247;50.840;4.382;2023-10-09T14:30:40;22.70;99.90
29207;DHT22;16247;50.840;4.382;2023-10-09T15:52:05;21.60;99.90
29207;DHT22;16247;50.840;4.382;2023-10-09T15:54:45;21.40;99.90
29207;DHT22;16247;50.840;4.382;2023-10-09T15:57:16;21.50;99.90
29207;DHT22;16247;50.840;4.382;2023-10-09T15:59:44;21.60;99.90
29207;DHT22;16247;50.840;4.382;2023-10-09T16:02:10;21.60;99.90
29207;DHT22;16247;50.840;4.382;2023-10-09T16:04:44;21.70;99.90
29207;DHT22;16247;50.840;4.382;2023-10-09T16:07:14;21.70;99.90
29207;DHT22;16247;50.840;4.382;2023-10-09T16:09:46;21.80;99.90
29207;DHT22;16247;50.840;4.382;2023-10-09T16:12:12;21.70;99.90
29207;DHT22;16247;50.840;4.382;2023-10-09T16:14:39;21.60;99.90
29207;DHT22;16247;50.840;4.382;2023-10-09T16:17:06;21.60;99.90
29207;DHT22;16247;50.840;4.382;2023-10-09T16:19:35;21.60;99.90
29207;DHT22;16247;50.840;4.382;2023-10-09T16:22:02;21.40;99.90
29207;DHT22;16247;50.840;4.382;2023-10-09T16:24:31;21.40;99.90
29207;DHT22;16247;50.840;4.382;2023-10-09T16:27:00;21.40;99.90
29207;DHT22;16247;50.840;4.382;2023-10-09T16:29:26;21.40;99.90
29207;DHT22;16247;50.840;4.382;2023-10-09T16:31:58;21.30;99.90
29207;DHT22;16247;50.840;4.382;2023-10-09T16:34:23;21.30;99.90
29207;DHT22;16247;50.840;4.382;2023-10-09T16:36:53;21.10;99.90
29207;DHT22;16247;50.840;4.382;2023-10-09T16:39:26;21.40;99.90
29207;DHT22;16247;50.840;4.382;2023-10-09T16:42:07;21.20;99.90
29207;DHT22;16247;50.840;4.382;2023-10-09T16:44:43;21.10;99.90
29207;DHT22;16247;50.840;4.382;2023-10-09T16:47:12;20.90;99.90
29207;DHT22;16247;50.840;4.382;2023-10-09T16:50:09;20.90;99.90
29207;DHT22;16247;50.840;4.382;2023-10-09T16:52:57;20.70;99.90
29207;DHT22;16247;50.840;4.382;2023-10-09T16:55:53;20.70;99.90
29207;DHT22;16247;50.840;4.382;2023-10-09T16:58:50;20.90;99.90
29207;DHT22;16247;50.840;4.382;2023-10-09T17:04:03;20.70;99.90
29207;DHT22;16247;50.840;4.382;2023-10-09T17:06:56;20.70;99.90
29207;DHT22;16247;50.840;4.382;2023-10-09T17:09:47;20.70;99.90
29207;DHT22;16247;50.840;4.382;2023-10-09T17:12:57;20.70;99.90
29207;DHT22;16247;50.840;4.382;2023-10-09T17:15:48;20.60;99.90
29207;DHT22;16247;50.840;4.382;2023-10-09T17:18:26;20.50;99.90
29207;DHT22;16247;50.840;4.382;2023-10-09T17:23:57;20.50;99.90
29207;DHT22;16247;50.840;4.382;2023-10-09T17:26:42;20.50;99.90
29207;DHT22;16247;50.840;4.382;2023-10-09T17:29:35;20.30;99.90
29207;DHT22;16247;50.840;4.382;2023-10-09T17:32:40;20.40;99.90
29207;DHT22;16247;50.840;4.382;2023-10-09T17:35:56;20.40;99.90
29207;DHT22;16247;50.840;4.382;2023-10-09T17:42:11;20.30;99.90
29207;DHT22;16247;50.840;4.382;2023-10-09T17:53:19;20.10;99.90
29207;DHT22;16247;50.840;4.382;2023-10-09T17:56:19;20.00;99.90
29207;DHT22;16247;50.840;4.382;2023-10-09T18:14:59;19.90;99.90
29207;DHT22;16247;50.840;4.382;2023-10-09T18:57:37;19.60;99.90
29207;DHT22;16247;50.840;4.382;2023-10-09T19:00:15;19.60;99.90
29207;DHT22;16247;50.840;4.382;2023-10-09T19:03:02;19.50;99.90
29207;DHT22;16247;50.840;4.382;2023-10-09T19:05:46;19.50;99.90
29207;DHT22;16247;50.840;4.382;2023-10-09T19:08:17;19.40;99.90
29207;DHT22;16247;50.840;4.382;2023-10-09T19:50:29;18.60;99.90
29207;DHT22;16247;50.840;4.382;2023-10-09T20:06:31;18.50;99.90
29207;DHT22;16247;50.840;4.382;2023-10-09T20:12:08;18.60;99.90
29207;DHT22;16247;50.840;4.382;2023-10-09T20:14:54;18.70;99.90
29207;DHT22;16247;50.840;4.382;2023-10-09T20:21:16;18.40;99.90
29207;DHT22;16247;50.840;4.382;2023-10-09T20:24:04;18.40;99.90
29207;DHT22;16247;50.840;4.382;2023-10-09T20:26:37;18.30;99.90
29207;DHT22;16247;50.840;4.382;2023-10-09T20:29:14;18.30;99.90
29207;DHT22;16247;50.840;4.382;2023-10-09T20:32:00;18.30;99.90
29207;DHT22;16247;50.840;4.382;2023-10-09T20:34:32;18.30;99.90
29207;DHT22;16247;50.840;4.382;2023-10-09T20:37:04;18.20;99.90
29207;DHT22;16247;50.840;4.382;2023-10-09T20:39:58;18.20;99.90
29207;DHT22;16247;50.840;4.382;2023-10-09T20:42:32;18.20;99.90
29207;DHT22;16247;50.840;4.382;2023-10-09T20:44:59;18.20;99.90